sensor_id;sensor_type;location;lat;lon;timestamp;temperature;humidity
17954;DHT22;9102;53.548;9.926;2022-08-19T00:00:50;19.60;99.90
17954;DHT22;9102;53.548;9.926;2022-08-19T00:03:17;19.60;99.90
17954;DHT22;9102;53.548;9.926;2022-08-19T00:05:44;19.60;99.90
17954;DHT22;9102;53.548;9.926;2022-08-19T00:08:11;19.60;99.90
17954;DHT22;9102;53.548;9.926;2022-08-19T00:10:38;19.60;99.90
17954;DHT22;9102;53.548;9.926;2022-08-19T00:13:05;19.60;99.90
17954;DHT22;9102;53.548;9.926;2022-08-19T00:15:32;19.60;99.90
17954;DHT22;9102;53.548;9.926;2022-08-19T00:18:00;19.60;99.90
17954;DHT22;9102;53.548;9.926;2022-08-19T00:20:27;19.50;99.90
17954;DHT22;9102;53.548;9.926;2022-08-19T00:22:54;19.40;99.90
17954;DHT22;9102;53.548;9.926;2022-08-19T00:25:21;19.50;99.90
17954;DHT22;9102;53.548;9.926;2022-08-19T00:27:47;19.50;99.90
17954;DHT22;9102;53.548;9.926;2022-08-19T00:30:15;19.60;99.90
17954;DHT22;9102;53.548;9.926;2022-08-19T00:32:42;19.60;99.90
17954;DHT22;9102;53.548;9.926;2022-08-19T00:35:10;19.70;99.90
17954;DHT22;9102;53.548;9.926;2022-08-19T00:37:38;19.70;99.90
17954;DHT22;9102;53.548;9.926;2022-08-19T00:40:11;19.60;99.90
17954;DHT22;9102;53.548;9.926;2022-08-19T00:42:38;19.70;99.90
17954;DHT22;9102;53.548;9.926;2022-08-19T00:45:10;19.70;99.90
17954;DHT22;9102;53.548;9.926;2022-08-19T00:47:37;19.60;99.90
17954;DHT22;9102;53.548;9.926;2022-08-19T00:50:05;19.60;99.90
17954;DHT22;9102;53.548;9.926;2022-08-19T00:52:36;19.60;99.90
17954;DHT22;9102;53.548;9.926;2022-08-19T00:55:07;19.60;99.90
17954;DHT22;9102;53.548;9.926;2022-08-19T00:57:39;19.70;99.90
17954;DHT22;9102;53.548;9.926;2022-08-19T01:00:10;19.60;99.90
17954;DHT22;9102;53.548;9.926;2022-08-19T01:02:39;19.60;99.90
17954;DHT22;9102;53.548;9.926;2022-08-19T01:05:09;19.60;99.90
17954;DHT22;9102;53.548;9.926;2022-08-19T01:07:39;19.60;99.90
17954;DHT22;9102;53.548;9.926;2022-08-19T01:10:09;19.60;99.90
17954;DHT22;9102;53.548;9.926;2022-08-19T01:12:37;19.60;99.90
17954;DHT22;9102;53.548;9.926;2022-08-19T01:15:06;19.60;99.90
17954;DHT22;9102;53.548;9.926;2022-08-19T01:17:34;19.70;99.90
17954;DHT22;9102;53.548;9.926;2022-08-19T01:20:03;19.60;99.90
17954;DHT22;9102;53.548;9.926;2022-08-19T01:22:34;19.60;99.90
17954;DHT22;9102;53.548;9.926;2022-08-19T01:25:05;19.60;99.90
17954;DHT22;9102;53.548;9.926;2022-08-19T01:27:37;19.60;99.90
17954;DHT22;9102;53.548;9.926;2022-08-19T01:30:06;19.70;99.90
17954;DHT22;9102;53.548;9.926;2022-08-19T01:32:34;19.60;99.90
17954;DHT22;9102;53.548;9.926;2022-08-19T01:35:01;19.60;99.90
17954;DHT22;9102;53.548;9.926;2022-08-19T01:37:29;19.60;99.90
17954;DHT22;9102;53.548;9.926;2022-08-19T01:39:58;19.50;99.90
17954;DHT22;9102;53.548;9.926;2022-08-19T01:42:24;19.60;99.90
17954;DHT22;9102;53.548;9.926;2022-08-19T01:44:51;19.50;99.90
17954;DHT22;9102;53.548;9.926;2022-08-19T01:47:18;19.30;99.90
17954;DHT22;9102;53.548;9.926;2022-08-19T01:49:45;19.30;99.90
17954;DHT22;9102;53.548;9.926;2022-08-19T01:52:12;19.30;99.90
17954;DHT22;9102;53.548;9.926;2022-08-19T01:54:38;19.40;99.90
17954;DHT22;9102;53.548;9.926;2022-08-19T01:57:10;19.40;99.90
17954;DHT22;9102;53.548;9.926;2022-08-19T01:59:37;19.50;99.90
17954;DHT22;9102;53.548;9.926;2022-08-19T02:02:06;19.50;99.90
17954;DHT22;9102;53.548;9.926;2022-08-19T02:04:33;19.50;99.90
17954;DHT22;9102;53.548;9.926;2022-08-19T02:07:00;19.60;99.90
17954;DHT22;9102;53.548;9.926;2022-08-19T02:09:27;19.50;99.90
17954;DHT22;9102;53.548;9.926;2022-08-19T02:11:54;19.60;99.90
17954;DHT22;9102;53.548;9.926;2022-08-19T02:14:22;19.60;99.90
17954;DHT22;9102;53.548;9.926;2022-08-19T02:16:49;19.60;99.90
17954;DHT22;9102;53.548;9.926;2022-08-19T02:19:16;19.50;99.90
17954;DHT22;9102;53.548;9.926;2022-08-19T02:21:43;19.50;99.90
17954;DHT22;9102;53.548;9.926;2022-08-19T02:24:10;19.50;99.90
17954;DHT22;9102;53.548;9.926;2022-08-19T02:26:37;19.50;99.90
17954;DHT22;9102;53.548;9.926;2022-08-19T02:29:04;19.40;99.90
17954;DHT22;9102;53.548;9.926;2022-08-19T02:31:32;19.40;99.90
17954;DHT22;9102;53.548;9.926;2022-08-19T02:33:59;19.40;99.90
17954;DHT22;9102;53.548;9.926;2022-08-19T02:36:26;19.40;99.90
17954;DHT22;9102;53.548;9.926;2022-08-19T02:38:53;19.30;99.90
17954;DHT22;9102;53.548;9.926;2022-08-19T02:41:22;19.30;99.90
17954;DHT22;9102;53.548;9.926;2022-08-19T02:43:49;19.30;99.90
17954;DHT22;9102;53.548;9.926;2022-08-19T02:46:18;19.40;99.90
17954;DHT22;9102;53.548;9.926;2022-08-19T02:48:48;19.40;99.90
17954;DHT22;9102;53.548;9.926;2022-08-19T02:51:16;19.40;99.90
17954;DHT22;9102;53.548;9.926;2022-08-19T02:53:43;19.30;99.90
17954;DHT22;9102;53.548;9.926;2022-08-19T02:56:10;19.40;99.90
17954;DHT22;9102;53.548;9.926;2022-08-19T02:58:37;19.30;99.90
17954;DHT22;9102;53.548;9.926;2022-08-19T03:01:04;19.20;99.90
17954;DHT22;9102;53.548;9.926;2022-08-19T03:03:31;19.20;99.90
17954;DHT22;9102;53.548;9.926;2022-08-19T03:06:10;19.30;99.90
17954;DHT22;9102;53.548;9.926;2022-08-19T03:08:42;19.20;99.90
17954;DHT22;9102;53.548;9.926;2022-08-19T03:11:13;19.20;99.90
17954;DHT22;9102;53.548;9.926;2022-08-19T03:13:40;19.10;99.90
17954;DHT22;9102;53.548;9.926;2022-08-19T03:16:08;19.10;99.90
17954;DHT22;9102;53.548;9.926;2022-08-19T03:18:35;19.20;99.90
17954;DHT22;9102;53.548;9.926;2022-08-19T03:21:02;19.10;99.90
17954;DHT22;9102;53.548;9.926;2022-08-19T03:23:31;19.10;99.90
17954;DHT22;9102;53.548;9.926;2022-08-19T03:25:58;19.00;99.90
17954;DHT22;9102;53.548;9.926;2022-08-19T03:28:25;19.10;99.90
17954;DHT22;9102;53.548;9.926;2022-08-19T03:30:58;19.10;99.90
17954;DHT22;9102;53.548;9.926;2022-08-19T03:33:26;19.10;99.90
17954;DHT22;9102;53.548;9.926;2022-08-19T03:36:06;19.10;99.90
17954;DHT22;9102;53.548;9.926;2022-08-19T03:38:36;19.00;99.90
17954;DHT22;9102;53.548;9.926;2022-08-19T03:41:05;19.00;99.90
17954;DHT22;9102;53.548;9.926;2022-08-19T03:43:34;18.90;99.90
17954;DHT22;9102;53.548;9.926;2022-08-19T03:46:02;19.00;99.90
17954;DHT22;9102;53.548;9.926;2022-08-19T03:48:30;18.90;99.90
17954;DHT22;9102;53.548;9.926;2022-08-19T03:50:58;19.00;99.90
17954;DHT22;9102;53.548;9.926;2022-08-19T03:53:26;19.00;99.90
17954;DHT22;9102;53.548;9.926;2022-08-19T03:55:56;19.00;99.90
17954;DHT22;9102;53.548;9.926;2022-08-19T03:58:23;19.00;99.90
17954;DHT22;9102;53.548;9.926;2022-08-19T04:00:50;19.00;99.90
17954;DHT22;9102;53.548;9.926;2022-08-19T04:03:17;19.10;99.90
17954;DHT22;9102;53.548;9.926;2022-08-19T04:05:45;19.10;99.90
17954;DHT22;9102;53.548;9.926;2022-08-19T04:08:13;19.10;99.90
17954;DHT22;9102;53.548;9.926;2022-08-19T04:10:40;19.00;99.90
17954;DHT22;9102;53.548;9.926;2022-08-19T04:13:09;19.00;99.90
17954;DHT22;9102;53.548;9.926;2022-08-19T04:15:39;18.90;99.90
17954;DHT22;9102;53.548;9.926;2022-08-19T04:18:07;18.90;99.90
17954;DHT22;9102;53.548;9.926;2022-08-19T04:20:39;18.90;99.90
17954;DHT22;9102;53.548;9.926;2022-08-19T04:23:06;18.90;99.90
17954;DHT22;9102;53.548;9.926;2022-08-19T04:25:36;18.90;99.90
17954;DHT22;9102;53.548;9.926;2022-08-19T04:28:03;18.90;99.90
17954;DHT22;9102;53.548;9.926;2022-08-19T04:30:37;18.90;99.90
17954;DHT22;9102;53.548;9.926;2022-08-19T04:33:04;18.90;99.90
17954;DHT22;9102;53.548;9.926;2022-08-19T04:35:35;18.90;99.90
17954;DHT22;9102;53.548;9.926;2022-08-19T04:38:02;18.90;99.90
17954;DHT22;9102;53.548;9.926;2022-08-19T04:40:29;18.90;99.90
17954;DHT22;9102;53.548;9.926;2022-08-19T04:43:13;18.90;99.90
17954;DHT22;9102;53.548;9.926;2022-08-19T04:45:42;18.80;99.90
17954;DHT22;9102;53.548;9.926;2022-08-19T04:48:10;18.80;99.90
17954;DHT22;9102;53.548;9.926;2022-08-19T04:50:39;18.90;99.90
17954;DHT22;9102;53.548;9.926;2022-08-19T04:53:07;18.90;99.90
17954;DHT22;9102;53.548;9.926;2022-08-19T04:55:34;18.70;99.90
17954;DHT22;9102;53.548;9.926;2022-08-19T04:58:02;18.70;99.90
17954;DHT22;9102;53.548;9.926;2022-08-19T05:00:29;18.70;99.90
17954;DHT22;9102;53.548;9.926;2022-08-19T05:02:57;18.70;99.90
17954;DHT22;9102;53.548;9.926;2022-08-19T05:05:24;18.70;99.90
17954;DHT22;9102;53.548;9.926;2022-08-19T05:07:51;18.70;99.90
17954;DHT22;9102;53.548;9.926;2022-08-19T05:10:17;18.70;99.90
17954;DHT22;9102;53.548;9.926;2022-08-19T05:12:44;18.70;99.90
17954;DHT22;9102;53.548;9.926;2022-08-19T05:15:11;18.60;99.90
17954;DHT22;9102;53.548;9.926;2022-08-19T05:17:38;18.60;99.90
17954;DHT22;9102;53.548;9.926;2022-08-19T05:20:28;18.60;99.90
17954;DHT22;9102;53.548;9.926;2022-08-19T05:23:12;18.60;99.90
17954;DHT22;9102;53.548;9.926;2022-08-19T05:25:42;18.50;99.90
17954;DHT22;9102;53.548;9.926;2022-08-19T05:28:09;18.60;99.90
17954;DHT22;9102;53.548;9.926;2022-08-19T05:30:36;18.60;99.90
17954;DHT22;9102;53.548;9.926;2022-08-19T05:33:03;18.70;99.90
17954;DHT22;9102;53.548;9.926;2022-08-19T05:35:31;18.70;99.90
17954;DHT22;9102;53.548;9.926;2022-08-19T05:37:58;18.70;99.90
17954;DHT22;9102;53.548;9.926;2022-08-19T05:40:25;18.70;99.90
17954;DHT22;9102;53.548;9.926;2022-08-19T05:42:51;18.80;99.90
17954;DHT22;9102;53.548;9.926;2022-08-19T05:45:18;18.90;99.90
17954;DHT22;9102;53.548;9.926;2022-08-19T05:47:46;18.80;99.90
17954;DHT22;9102;53.548;9.926;2022-08-19T05:50:13;18.80;99.90
17954;DHT22;9102;53.548;9.926;2022-08-19T05:52:42;18.80;99.90
17954;DHT22;9102;53.548;9.926;2022-08-19T05:55:08;18.80;99.90
17954;DHT22;9102;53.548;9.926;2022-08-19T05:57:36;18.80;99.90
17954;DHT22;9102;53.548;9.926;2022-08-19T06:00:05;18.80;99.90
17954;DHT22;9102;53.548;9.926;2022-08-19T06:02:35;18.70;99.90
17954;DHT22;9102;53.548;9.926;2022-08-19T06:05:03;18.70;99.90
17954;DHT22;9102;53.548;9.926;2022-08-19T06:07:31;18.70;99.90
17954;DHT22;9102;53.548;9.926;2022-08-19T06:09:59;18.70;99.90
17954;DHT22;9102;53.548;9.926;2022-08-19T06:12:26;18.60;99.90
17954;DHT22;9102;53.548;9.926;2022-08-19T06:14:58;18.70;99.90
17954;DHT22;9102;53.548;9.926;2022-08-19T06:17:25;18.70;99.90
17954;DHT22;9102;53.548;9.926;2022-08-19T06:19:52;18.80;99.90
17954;DHT22;9102;53.548;9.926;2022-08-19T06:22:19;18.80;99.90
17954;DHT22;9102;53.548;9.926;2022-08-19T06:24:46;18.80;99.90
17954;DHT22;9102;53.548;9.926;2022-08-19T06:27:14;18.90;99.90
17954;DHT22;9102;53.548;9.926;2022-08-19T06:29:41;18.90;99.90
17954;DHT22;9102;53.548;9.926;2022-08-19T06:32:08;19.00;99.90
17954;DHT22;9102;53.548;9.926;2022-08-19T06:34:36;18.90;99.90
17954;DHT22;9102;53.548;9.926;2022-08-19T06:37:03;19.00;99.90
17954;DHT22;9102;53.548;9.926;2022-08-19T06:39:37;19.00;99.90
17954;DHT22;9102;53.548;9.926;2022-08-19T06:42:06;18.90;99.90
17954;DHT22;9102;53.548;9.926;2022-08-19T06:44:39;18.90;99.90
17954;DHT22;9102;53.548;9.926;2022-08-19T06:47:08;18.80;99.90
17954;DHT22;9102;53.548;9.926;2022-08-19T06:49:35;18.90;99.90
17954;DHT22;9102;53.548;9.926;2022-08-19T06:52:03;18.90;99.90
17954;DHT22;9102;53.548;9.926;2022-08-19T06:54:30;18.90;99.90
17954;DHT22;9102;53.548;9.926;2022-08-19T06:56:58;18.90;99.90
17954;DHT22;9102;53.548;9.926;2022-08-19T06:59:27;19.00;99.90
17954;DHT22;9102;53.548;9.926;2022-08-19T07:02:01;19.00;99.90
17954;DHT22;9102;53.548;9.926;2022-08-19T07:04:31;18.90;99.90
17954;DHT22;9102;53.548;9.926;2022-08-19T07:07:01;18.90;99.90
17954;DHT22;9102;53.548;9.926;2022-08-19T07:09:28;19.00;99.90
17954;DHT22;9102;53.548;9.926;2022-08-19T07:11:56;19.00;99.90
17954;DHT22;9102;53.548;9.926;2022-08-19T07:14:24;19.10;99.90
17954;DHT22;9102;53.548;9.926;2022-08-19T07:16:53;19.10;99.90
17954;DHT22;9102;53.548;9.926;2022-08-19T07:19:23;19.20;99.90
17954;DHT22;9102;53.548;9.926;2022-08-19T07:21:51;19.20;99.90
17954;DHT22;9102;53.548;9.926;2022-08-19T07:24:20;19.20;99.90
17954;DHT22;9102;53.548;9.926;2022-08-19T07:26:50;19.40;99.90
17954;DHT22;9102;53.548;9.926;2022-08-19T07:29:18;19.50;99.90
17954;DHT22;9102;53.548;9.926;2022-08-19T07:31:48;19.60;99.90
17954;DHT22;9102;53.548;9.926;2022-08-19T07:34:16;19.70;99.90
17954;DHT22;9102;53.548;9.926;2022-08-19T07:36:44;19.80;99.90
17954;DHT22;9102;53.548;9.926;2022-08-19T07:39:18;19.90;99.90
17954;DHT22;9102;53.548;9.926;2022-08-19T07:41:50;19.90;99.90
17954;DHT22;9102;53.548;9.926;2022-08-19T07:44:18;19.90;99.90
17954;DHT22;9102;53.548;9.926;2022-08-19T07:46:47;19.90;99.90
17954;DHT22;9102;53.548;9.926;2022-08-19T07:49:15;19.90;99.90
17954;DHT22;9102;53.548;9.926;2022-08-19T07:51:47;19.90;99.90
17954;DHT22;9102;53.548;9.926;2022-08-19T07:54:14;19.90;99.90
17954;DHT22;9102;53.548;9.926;2022-08-19T07:56:41;19.90;99.90
17954;DHT22;9102;53.548;9.926;2022-08-19T07:59:09;19.90;99.90
17954;DHT22;9102;53.548;9.926;2022-08-19T08:01:39;19.80;99.90
17954;DHT22;9102;53.548;9.926;2022-08-19T08:04:07;19.80;99.90
17954;DHT22;9102;53.548;9.926;2022-08-19T08:06:53;19.90;99.90
17954;DHT22;9102;53.548;9.926;2022-08-19T08:09:39;19.90;99.90
17954;DHT22;9102;53.548;9.926;2022-08-19T08:12:09;19.90;99.90
17954;DHT22;9102;53.548;9.926;2022-08-19T08:14:42;19.90;99.90
17954;DHT22;9102;53.548;9.926;2022-08-19T08:17:10;19.90;99.90
17954;DHT22;9102;53.548;9.926;2022-08-19T08:19:38;19.80;99.90
17954;DHT22;9102;53.548;9.926;2022-08-19T08:22:08;19.70;99.90
17954;DHT22;9102;53.548;9.926;2022-08-19T08:24:56;19.80;99.90
17954;DHT22;9102;53.548;9.926;2022-08-19T08:27:25;19.90;99.90
17954;DHT22;9102;53.548;9.926;2022-08-19T08:29:54;19.80;99.90
17954;DHT22;9102;53.548;9.926;2022-08-19T08:32:21;19.90;99.90
17954;DHT22;9102;53.548;9.926;2022-08-19T08:34:48;20.00;99.90
17954;DHT22;9102;53.548;9.926;2022-08-19T08:37:16;20.00;99.90
17954;DHT22;9102;53.548;9.926;2022-08-19T08:39:43;19.90;99.90
17954;DHT22;9102;53.548;9.926;2022-08-19T08:42:13;19.90;99.90
17954;DHT22;9102;53.548;9.926;2022-08-19T08:44:46;20.00;99.90
17954;DHT22;9102;53.548;9.926;2022-08-19T08:47:17;19.90;99.90
17954;DHT22;9102;53.548;9.926;2022-08-19T08:49:48;19.80;99.90
17954;DHT22;9102;53.548;9.926;2022-08-19T08:52:23;20.00;99.90
17954;DHT22;9102;53.548;9.926;2022-08-19T08:54:53;20.10;99.90
17954;DHT22;9102;53.548;9.926;2022-08-19T08:57:26;20.20;99.90
17954;DHT22;9102;53.548;9.926;2022-08-19T08:59:56;20.30;99.90
17954;DHT22;9102;53.548;9.926;2022-08-19T09:02:25;20.30;99.90
17954;DHT22;9102;53.548;9.926;2022-08-19T09:04:54;20.30;99.90
17954;DHT22;9102;53.548;9.926;2022-08-19T09:07:29;20.20;99.90
17954;DHT22;9102;53.548;9.926;2022-08-19T09:10:06;20.20;99.90
17954;DHT22;9102;53.548;9.926;2022-08-19T09:12:40;20.30;99.90
17954;DHT22;9102;53.548;9.926;2022-08-19T09:15:13;20.40;99.90
17954;DHT22;9102;53.548;9.926;2022-08-19T09:17:41;20.60;99.90
17954;DHT22;9102;53.548;9.926;2022-08-19T09:20:18;20.80;99.90
17954;DHT22;9102;53.548;9.926;2022-08-19T09:22:46;20.90;99.90
17954;DHT22;9102;53.548;9.926;2022-08-19T09:25:16;21.10;99.90
17954;DHT22;9102;53.548;9.926;2022-08-19T09:27:44;21.10;99.90
17954;DHT22;9102;53.548;9.926;2022-08-19T09:30:14;21.10;99.90
17954;DHT22;9102;53.548;9.926;2022-08-19T09:32:41;20.80;99.90
17954;DHT22;9102;53.548;9.926;2022-08-19T09:35:09;20.80;99.90
17954;DHT22;9102;53.548;9.926;2022-08-19T09:37:36;20.90;99.90
17954;DHT22;9102;53.548;9.926;2022-08-19T09:40:05;20.80;99.90
17954;DHT22;9102;53.548;9.926;2022-08-19T09:42:33;20.80;99.90
17954;DHT22;9102;53.548;9.926;2022-08-19T09:45:00;20.70;99.90
17954;DHT22;9102;53.548;9.926;2022-08-19T09:47:27;20.50;99.90
17954;DHT22;9102;53.548;9.926;2022-08-19T09:49:53;20.30;99.90
17954;DHT22;9102;53.548;9.926;2022-08-19T09:52:21;20.20;99.90
17954;DHT22;9102;53.548;9.926;2022-08-19T09:54:47;20.10;99.90
17954;DHT22;9102;53.548;9.926;2022-08-19T09:57:19;20.10;99.90
17954;DHT22;9102;53.548;9.926;2022-08-19T09:59:46;20.20;99.90
17954;DHT22;9102;53.548;9.926;2022-08-19T10:02:13;20.30;99.90
17954;DHT22;9102;53.548;9.926;2022-08-19T10:04:40;20.40;99.90
17954;DHT22;9102;53.548;9.926;2022-08-19T10:07:25;20.50;99.90
17954;DHT22;9102;53.548;9.926;2022-08-19T10:09:51;20.60;99.90
17954;DHT22;9102;53.548;9.926;2022-08-19T10:12:19;20.30;99.90
17954;DHT22;9102;53.548;9.926;2022-08-19T10:14:46;20.10;99.90
17954;DHT22;9102;53.548;9.926;2022-08-19T10:17:13;20.00;99.90
17954;DHT22;9102;53.548;9.926;2022-08-19T10:19:40;20.10;99.90
17954;DHT22;9102;53.548;9.926;2022-08-19T10:22:07;20.10;99.90
17954;DHT22;9102;53.548;9.926;2022-08-19T10:24:36;20.30;99.90
17954;DHT22;9102;53.548;9.926;2022-08-19T10:27:03;20.50;99.90
17954;DHT22;9102;53.548;9.926;2022-08-19T10:29:33;20.40;99.90
17954;DHT22;9102;53.548;9.926;2022-08-19T10:32:02;20.10;99.90
17954;DHT22;9102;53.548;9.926;2022-08-19T10:34:30;20.30;99.90
17954;DHT22;9102;53.548;9.926;2022-08-19T10:36:58;20.30;99.90
17954;DHT22;9102;53.548;9.926;2022-08-19T10:39:25;20.30;99.90
17954;DHT22;9102;53.548;9.926;2022-08-19T10:41:54;20.20;99.90
17954;DHT22;9102;53.548;9.926;2022-08-19T10:44:22;20.10;99.90
17954;DHT22;9102;53.548;9.926;2022-08-19T10:46:51;20.10;99.90
17954;DHT22;9102;53.548;9.926;2022-08-19T10:49:18;20.10;99.90
17954;DHT22;9102;53.548;9.926;2022-08-19T10:51:46;20.10;99.90
17954;DHT22;9102;53.548;9.926;2022-08-19T10:54:30;20.10;99.90
17954;DHT22;9102;53.548;9.926;2022-08-19T10:57:10;20.00;99.90
17954;DHT22;9102;53.548;9.926;2022-08-19T10:59:37;20.10;99.90
17954;DHT22;9102;53.548;9.926;2022-08-19T11:02:09;20.10;99.90
17954;DHT22;9102;53.548;9.926;2022-08-19T11:04:37;20.40;99.90
17954;DHT22;9102;53.548;9.926;2022-08-19T11:07:05;20.60;99.90
17954;DHT22;9102;53.548;9.926;2022-08-19T11:09:37;20.70;99.90
17954;DHT22;9102;53.548;9.926;2022-08-19T11:12:05;20.80;99.90
17954;DHT22;9102;53.548;9.926;2022-08-19T11:14:34;20.80;99.90
17954;DHT22;9102;53.548;9.926;2022-08-19T11:17:01;20.80;99.90
17954;DHT22;9102;53.548;9.926;2022-08-19T11:19:30;21.00;99.90
17954;DHT22;9102;53.548;9.926;2022-08-19T11:21:57;21.00;99.90
17954;DHT22;9102;53.548;9.926;2022-08-19T11:24:28;21.40;99.90
17954;DHT22;9102;53.548;9.926;2022-08-19T11:27:01;21.60;99.90
17954;DHT22;9102;53.548;9.926;2022-08-19T11:29:30;22.00;99.90
17954;DHT22;9102;53.548;9.926;2022-08-19T11:31:57;22.20;99.90
17954;DHT22;9102;53.548;9.926;2022-08-19T11:34:26;22.30;99.90
17954;DHT22;9102;53.548;9.926;2022-08-19T11:36:56;22.40;99.90
17954;DHT22;9102;53.548;9.926;2022-08-19T11:39:26;22.40;99.90
17954;DHT22;9102;53.548;9.926;2022-08-19T11:41:53;22.80;99.90
17954;DHT22;9102;53.548;9.926;2022-08-19T11:44:20;22.80;99.90
17954;DHT22;9102;53.548;9.926;2022-08-19T11:46:47;22.70;99.90
17954;DHT22;9102;53.548;9.926;2022-08-19T11:49:15;22.70;99.90
17954;DHT22;9102;53.548;9.926;2022-08-19T11:51:44;22.70;99.90
17954;DHT22;9102;53.548;9.926;2022-08-19T11:54:13;22.60;99.90
17954;DHT22;9102;53.548;9.926;2022-08-19T11:56:41;22.40;99.90
17954;DHT22;9102;53.548;9.926;2022-08-19T11:59:08;22.20;99.90
17954;DHT22;9102;53.548;9.926;2022-08-19T12:01:36;22.20;99.90
17954;DHT22;9102;53.548;9.926;2022-08-19T12:04:03;22.00;99.90
17954;DHT22;9102;53.548;9.926;2022-08-19T12:06:31;21.70;99.90
17954;DHT22;9102;53.548;9.926;2022-08-19T12:09:01;21.40;99.90
17954;DHT22;9102;53.548;9.926;2022-08-19T12:11:30;21.40;99.90
17954;DHT22;9102;53.548;9.926;2022-08-19T12:13:58;21.70;99.90
17954;DHT22;9102;53.548;9.926;2022-08-19T12:16:26;21.80;99.90
17954;DHT22;9102;53.548;9.926;2022-08-19T12:18:54;21.90;99.90
17954;DHT22;9102;53.548;9.926;2022-08-19T12:21:23;22.30;99.90
17954;DHT22;9102;53.548;9.926;2022-08-19T12:23:54;22.40;99.90
17954;DHT22;9102;53.548;9.926;2022-08-19T12:26:22;22.40;99.90
17954;DHT22;9102;53.548;9.926;2022-08-19T12:28:51;22.60;99.90
17954;DHT22;9102;53.548;9.926;2022-08-19T12:31:18;22.60;99.90
17954;DHT22;9102;53.548;9.926;2022-08-19T12:33:45;22.80;99.90
17954;DHT22;9102;53.548;9.926;2022-08-19T12:36:14;23.00;99.90
17954;DHT22;9102;53.548;9.926;2022-08-19T12:38:42;23.40;99.90
17954;DHT22;9102;53.548;9.926;2022-08-19T12:41:12;23.80;99.90
17954;DHT22;9102;53.548;9.926;2022-08-19T12:43:39;24.00;99.90
17954;DHT22;9102;53.548;9.926;2022-08-19T12:46:08;24.00;99.90
17954;DHT22;9102;53.548;9.926;2022-08-19T12:48:35;24.00;99.90
17954;DHT22;9102;53.548;9.926;2022-08-19T12:51:06;24.00;99.90
17954;DHT22;9102;53.548;9.926;2022-08-19T12:53:33;24.10;99.90
17954;DHT22;9102;53.548;9.926;2022-08-19T12:56:01;23.90;99.90
17954;DHT22;9102;53.548;9.926;2022-08-19T12:58:29;23.80;99.90
17954;DHT22;9102;53.548;9.926;2022-08-19T13:00:55;23.90;99.90
17954;DHT22;9102;53.548;9.926;2022-08-19T13:03:24;24.10;99.90
17954;DHT22;9102;53.548;9.926;2022-08-19T13:05:55;24.10;99.90
17954;DHT22;9102;53.548;9.926;2022-08-19T13:08:21;24.20;99.90
17954;DHT22;9102;53.548;9.926;2022-08-19T13:10:48;24.20;99.90
17954;DHT22;9102;53.548;9.926;2022-08-19T13:13:16;24.20;99.90
17954;DHT22;9102;53.548;9.926;2022-08-19T13:15:43;24.00;99.90
17954;DHT22;9102;53.548;9.926;2022-08-19T13:18:11;23.90;99.90
17954;DHT22;9102;53.548;9.926;2022-08-19T13:20:41;24.00;99.90
17954;DHT22;9102;53.548;9.926;2022-08-19T13:23:08;24.10;99.90
17954;DHT22;9102;53.548;9.926;2022-08-19T13:25:35;24.10;99.90
17954;DHT22;9102;53.548;9.926;2022-08-19T13:28:03;23.70;99.90
17954;DHT22;9102;53.548;9.926;2022-08-19T13:30:32;23.60;99.90
17954;DHT22;9102;53.548;9.926;2022-08-19T13:33:20;23.70;99.90
17954;DHT22;9102;53.548;9.926;2022-08-19T13:35:50;23.80;99.90
17954;DHT22;9102;53.548;9.926;2022-08-19T13:38:23;23.80;99.90
17954;DHT22;9102;53.548;9.926;2022-08-19T13:40:52;23.80;99.90
17954;DHT22;9102;53.548;9.926;2022-08-19T13:43:21;23.90;99.90
17954;DHT22;9102;53.548;9.926;2022-08-19T13:45:49;24.00;99.90
17954;DHT22;9102;53.548;9.926;2022-08-19T13:48:16;24.00;99.90
17954;DHT22;9102;53.548;9.926;2022-08-19T13:50:45;24.00;99.90
17954;DHT22;9102;53.548;9.926;2022-08-19T13:53:14;23.90;99.90
17954;DHT22;9102;53.548;9.926;2022-08-19T13:55:43;23.80;99.90
17954;DHT22;9102;53.548;9.926;2022-08-19T13:58:11;23.60;99.90
17954;DHT22;9102;53.548;9.926;2022-08-19T14:00:40;23.20;99.90
17954;DHT22;9102;53.548;9.926;2022-08-19T14:03:07;23.40;99.90
17954;DHT22;9102;53.548;9.926;2022-08-19T14:05:34;23.60;99.90
17954;DHT22;9102;53.548;9.926;2022-08-19T14:08:02;23.60;99.90
17954;DHT22;9102;53.548;9.926;2022-08-19T14:10:30;23.80;99.90
17954;DHT22;9102;53.548;9.926;2022-08-19T14:13:01;23.80;99.90
17954;DHT22;9102;53.548;9.926;2022-08-19T14:15:28;23.80;99.90
17954;DHT22;9102;53.548;9.926;2022-08-19T14:17:56;24.00;99.90
17954;DHT22;9102;53.548;9.926;2022-08-19T14:20:23;23.90;99.90
17954;DHT22;9102;53.548;9.926;2022-08-19T14:22:50;23.90;99.90
17954;DHT22;9102;53.548;9.926;2022-08-19T14:25:19;24.00;99.90
17954;DHT22;9102;53.548;9.926;2022-08-19T14:27:48;24.00;99.90
17954;DHT22;9102;53.548;9.926;2022-08-19T14:30:17;24.10;99.90
17954;DHT22;9102;53.548;9.926;2022-08-19T14:32:44;24.50;99.90
17954;DHT22;9102;53.548;9.926;2022-08-19T14:35:13;24.50;99.90
17954;DHT22;9102;53.548;9.926;2022-08-19T14:37:41;24.60;99.90
17954;DHT22;9102;53.548;9.926;2022-08-19T14:40:09;24.50;99.90
17954;DHT22;9102;53.548;9.926;2022-08-19T14:42:37;24.40;99.90
17954;DHT22;9102;53.548;9.926;2022-08-19T14:45:06;24.30;99.90
17954;DHT22;9102;53.548;9.926;2022-08-19T14:47:34;24.20;99.90
17954;DHT22;9102;53.548;9.926;2022-08-19T14:50:01;24.10;99.90
17954;DHT22;9102;53.548;9.926;2022-08-19T14:52:27;24.00;99.90
17954;DHT22;9102;53.548;9.926;2022-08-19T14:54:54;23.80;99.90
17954;DHT22;9102;53.548;9.926;2022-08-19T14:57:21;23.70;99.90
17954;DHT22;9102;53.548;9.926;2022-08-19T14:59:48;23.70;99.90
17954;DHT22;9102;53.548;9.926;2022-08-19T15:02:16;23.60;99.90
17954;DHT22;9102;53.548;9.926;2022-08-19T15:04:43;23.70;99.90
17954;DHT22;9102;53.548;9.926;2022-08-19T15:07:10;23.80;99.90
17954;DHT22;9102;53.548;9.926;2022-08-19T15:09:37;23.80;99.90
17954;DHT22;9102;53.548;9.926;2022-08-19T15:12:04;23.80;99.90
17954;DHT22;9102;53.548;9.926;2022-08-19T15:14:31;23.90;99.90
17954;DHT22;9102;53.548;9.926;2022-08-19T15:17:01;24.20;99.90
17954;DHT22;9102;53.548;9.926;2022-08-19T15:19:30;24.30;99.90
17954;DHT22;9102;53.548;9.926;2022-08-19T15:21:58;24.50;99.90
17954;DHT22;9102;53.548;9.926;2022-08-19T15:24:26;24.70;99.90
17954;DHT22;9102;53.548;9.926;2022-08-19T15:26:53;24.70;99.90
17954;DHT22;9102;53.548;9.926;2022-08-19T15:29:21;24.60;99.90
17954;DHT22;9102;53.548;9.926;2022-08-19T15:31:50;24.60;99.90
17954;DHT22;9102;53.548;9.926;2022-08-19T15:34:17;24.60;99.90
17954;DHT22;9102;53.548;9.926;2022-08-19T15:36:45;24.40;99.90
17954;DHT22;9102;53.548;9.926;2022-08-19T15:39:12;24.20;99.90
17954;DHT22;9102;53.548;9.926;2022-08-19T15:41:39;24.20;99.90
17954;DHT22;9102;53.548;9.926;2022-08-19T15:44:09;24.20;99.90
17954;DHT22;9102;53.548;9.926;2022-08-19T15:46:38;24.30;99.90
17954;DHT22;9102;53.548;9.926;2022-08-19T15:49:06;24.50;99.90
17954;DHT22;9102;53.548;9.926;2022-08-19T15:51:34;24.60;99.90
17954;DHT22;9102;53.548;9.926;2022-08-19T15:54:04;24.60;99.90